Impacts METAR Board INFO
IDs:

KIAH - Houston/Bush Intl, TX, US

Updated at: 1445 UTC 22 Feb 2018
Potential Impact None Slight Moderate High
Time22/02Z 22/03Z 22/04Z 22/05Z 22/06Z 22/07Z 22/08Z 22/09Z 22/10Z 22/11Z 22/12Z 22/13Z 22/14Z
VIS 1 5 10 8 10 10 5 2 2 0.5 0.5
CIG 5 5 6 5 6 6 5 4 4 3 3
CoverOVCOVCOVCOVCOVCOVCOVCOVCOVCOVCOVC
FltCatIFRIFRIFRIFRIFRIFRIFRLIFRLIFRLIFRLIFR
WX+TSRA BR-RA BR--+RA-RA---RA BRBRBRBR-DZ BR
WDir330330320350103403503603601040
WSpd 7 10 9 7 7 6 6 5 6 6 6
WGst -- -- -- -- -- -- -- -- -- -- --
Raw hourly METARs


KIAH 220405Z 33007KT 1SM +TSRA BR BKN005CB OVC011 12/12 A3017 RMK AO2 FRQ LTGICCG OHD SE-SW TS OHD SE-SW MOV NE P0001 T01220117
KIAH 220453Z 33010KT 5SM -RA BR BKN005 OVC012 12/11 A3019 RMK AO2 LTG DSNT N-E TSE44 SLP225 CB DSNT N-E MOV NE P0020 T01170111
KIAH 220553Z 32009KT 10SM BKN006 OVC016 11/10 A3021 RMK AO2 LTG DSNT NE AND NW RAE53 SLP229 CB DSNT NE NW MOV NE P0008 60028 T01060100 10144 20106 402390106 53014
KIAH 220653Z 35007KT 8SM +RA BKN005 OVC014 11/10 A3020 RMK AO2 LTG DSNT W-NE RAB0555 SLP226 P0011 T01060100
KIAH 220753Z 01007KT 10SM -RA BKN006 OVC011 11/10 A3019 RMK AO2 SLP223 P0004 T01060100
KIAH 220853Z 34006KT 10SM BKN006 OVC011 11/11 A3018 RMK AO2 LTG DSNT N AND NW RAE03B22E51 SLP222 CB DSNT N AND NW MOV NE P0000 60015 T01110106 56008
KIAH 220953Z 35006KT 5SM -RA BR OVC005 12/11 A3017 RMK AO2 RAB16 SLP217 P0001 T01170111
KIAH 221053Z 36005KT 2SM BR OVC004 12/12 A3018 RMK AO2 SFC VIS 4 RAE09 SLP219 P0000 T01220117
KIAH 221153Z 36006KT 2SM BR OVC004 13/12 A3019 RMK AO2 SFC VIS 3 SLP224 60016 70161 T01280122 10128 20100 53002
KIAH 221253Z 01006KT 1/2SM BR OVC003 13/13 A3020 RMK AO2 SFC VIS 1 1/2 SLP226 T01280128
KIAH 221353Z 04006KT 1/2SM -DZ BR OVC003 13/13 A3021 RMK AO2 SFC VIS 1 DZB53 SLP230 P0000 T01330128